createdAt,value
2018-07-24T00:00:58.822Z,67.33
2018-07-24T00:01:58.846Z,66.94
2018-07-24T00:02:58.873Z,67.04
2018-07-24T00:03:58.898Z,67.24
2018-07-24T00:05:19.939Z,67.14
2018-07-24T00:05:58.948Z,67.14
2018-07-24T00:06:58.971Z,67.04
2018-07-24T00:07:59.000Z,67.14
2018-07-24T00:08:59.025Z,66.85
2018-07-24T00:09:59.047Z,67.04
2018-07-24T00:11:20.092Z,66.75
2018-07-24T00:11:59.098Z,67.04
2018-07-24T00:12:59.123Z,66.85
2018-07-24T00:13:59.149Z,66.75
2018-07-24T00:14:59.173Z,66.85
2018-07-24T00:15:59.201Z,66.85
2018-07-24T00:17:20.244Z,66.66
2018-07-24T00:17:59.248Z,67.24
2018-07-24T00:18:59.271Z,66.75
2018-07-24T00:19:59.296Z,66.94
2018-07-24T00:20:59.322Z,66.75
2018-07-24T00:21:59.344Z,66.75
2018-07-24T00:23:20.391Z,66.94
2018-07-24T00:23:59.403Z,67.04
2018-07-24T00:24:59.425Z,66.66
2018-07-24T00:25:59.447Z,67.14
2018-07-24T00:26:59.475Z,66.85
2018-07-24T00:27:59.509Z,67.04
2018-07-24T00:29:20.537Z,66.94
2018-07-24T00:29:59.546Z,67.04
2018-07-24T00:30:59.573Z,67.04
2018-07-24T00:31:59.624Z,67.04
2018-07-24T00:32:59.620Z,67.04
2018-07-24T00:33:59.646Z,66.85
2018-07-24T00:35:20.688Z,67.33
2018-07-24T00:35:59.697Z,66.94
2018-07-24T00:36:59.721Z,67.04
2018-07-24T00:37:59.746Z,67.04
2018-07-24T00:38:59.769Z,67.14
2018-07-24T00:39:59.797Z,67.14
2018-07-24T00:41:20.836Z,67.14
2018-07-24T00:41:59.843Z,67.14
2018-07-24T00:42:59.873Z,66.85
2018-07-24T00:43:59.896Z,67.14
2018-07-24T00:44:59.925Z,67.04
2018-07-24T00:45:59.946Z,67.14
2018-07-24T00:47:20.988Z,67.33
2018-07-24T00:47:59.997Z,66.94
2018-07-24T00:49:00.023Z,67.04
2018-07-24T00:50:00.044Z,67.04
2018-07-24T00:51:00.068Z,67.33
2018-07-24T00:52:00.094Z,67.14
2018-07-24T00:53:21.135Z,67.33
2018-07-24T00:54:00.142Z,67.04
2018-07-24T00:55:00.170Z,67.14
2018-07-24T00:56:00.195Z,67.14
2018-07-24T00:57:00.220Z,67.04
2018-07-24T00:58:00.244Z,67.14
2018-07-24T00:59:21.284Z,66.85
2018-07-24T01:00:00.292Z,67.14
2018-07-24T01:01:00.318Z,67.24
2018-07-24T01:02:00.343Z,67.24
2018-07-24T01:03:00.370Z,67.33
2018-07-24T01:04:00.395Z,66.85
2018-07-24T01:05:21.451Z,67.04
2018-07-24T01:06:00.445Z,67.33
2018-07-24T01:07:00.468Z,66.85
2018-07-24T01:08:00.493Z,66.85
2018-07-24T01:09:00.519Z,67.24
2018-07-24T01:10:00.542Z,67.24
2018-07-24T01:11:21.585Z,67.33
2018-07-24T01:12:00.594Z,67.33
2018-07-24T01:13:00.619Z,67.04
2018-07-24T01:14:00.643Z,67.04
2018-07-24T01:15:00.665Z,67.14
2018-07-24T01:16:00.693Z,67.14
2018-07-24T01:17:21.733Z,67.04
2018-07-24T01:18:00.742Z,67.33
2018-07-24T01:19:00.765Z,67.52
2018-07-24T01:20:00.792Z,66.94
2018-07-24T01:21:00.816Z,67.33
2018-07-24T01:22:00.840Z,67.33
2018-07-24T01:23:21.885Z,67.24
2018-07-24T01:24:00.891Z,67.52
2018-07-24T01:25:00.917Z,67.43
2018-07-24T01:26:00.941Z,67.33
2018-07-24T01:27:00.966Z,67.52
2018-07-24T01:28:00.989Z,67.52
2018-07-24T01:29:22.033Z,67.33
2018-07-24T01:30:01.039Z,67.33
2018-07-24T01:31:01.067Z,67.62
2018-07-24T01:32:01.092Z,67.43
2018-07-24T01:33:01.117Z,67.43
2018-07-24T01:34:01.140Z,67.72
2018-07-24T01:35:22.183Z,67.72
2018-07-24T01:36:01.192Z,68.10
2018-07-24T01:37:01.218Z,68.01
2018-07-24T01:38:01.239Z,67.62
2018-07-24T01:39:01.266Z,67.62
2018-07-24T01:40:01.294Z,67.72
2018-07-24T01:41:22.328Z,67.43
2018-07-24T01:42:01.338Z,68.01
2018-07-24T01:43:01.364Z,67.91
2018-07-24T01:44:01.389Z,67.82
2018-07-24T01:45:01.415Z,67.82
2018-07-24T01:46:01.438Z,67.91
2018-07-24T01:47:22.477Z,67.91
2018-07-24T01:48:01.485Z,67.82
2018-07-24T01:49:01.514Z,67.62
2018-07-24T01:50:01.537Z,67.62
2018-07-24T01:51:01.561Z,67.62
2018-07-24T01:52:01.586Z,67.82
2018-07-24T01:53:22.628Z,67.62
2018-07-24T01:54:01.636Z,67.72
2018-07-24T01:55:01.662Z,67.62
2018-07-24T01:56:01.690Z,67.52
2018-07-24T01:57:01.729Z,67.69
2018-07-24T01:58:01.737Z,67.72
2018-07-24T01:59:22.776Z,67.82
2018-07-24T02:00:01.786Z,67.72
2018-07-24T02:01:01.811Z,67.62
2018-07-24T02:02:01.833Z,67.52
2018-07-24T02:03:01.862Z,67.72
2018-07-24T02:04:01.885Z,67.62
2018-07-24T02:05:22.930Z,67.52
2018-07-24T02:06:01.936Z,67.52
2018-07-24T02:07:01.960Z,67.62
2018-07-24T02:08:01.985Z,67.72
2018-07-24T02:09:02.011Z,68.01
2018-07-24T02:10:02.032Z,67.72
2018-07-24T02:11:23.074Z,68.01
2018-07-24T02:12:02.086Z,67.62
2018-07-24T02:13:02.108Z,68.30
2018-07-24T02:14:02.132Z,68.10
2018-07-24T02:15:02.158Z,67.91
2018-07-24T02:16:02.186Z,67.97
2018-07-24T02:17:23.226Z,67.82
2018-07-24T02:18:02.235Z,67.69
2018-07-24T02:19:02.256Z,67.72
2018-07-24T02:20:02.280Z,68.10
2018-07-24T02:21:02.306Z,67.88
2018-07-24T02:22:02.330Z,67.82
2018-07-24T02:23:23.371Z,67.69
2018-07-24T02:24:02.379Z,67.88
2018-07-24T02:25:02.405Z,68.26
2018-07-24T02:26:02.429Z,67.97
2018-07-24T02:27:02.455Z,68.17
2018-07-24T02:28:02.483Z,67.97
2018-07-24T02:29:23.522Z,68.26
2018-07-24T02:30:02.531Z,67.59
2018-07-24T02:31:02.553Z,68.07
2018-07-24T02:32:02.578Z,67.78
2018-07-24T02:33:02.603Z,67.69
2018-07-24T02:34:02.632Z,67.49
2018-07-24T02:35:23.671Z,67.97
2018-07-24T02:36:02.679Z,67.59
2018-07-24T02:37:02.704Z,67.78
2018-07-24T02:38:02.728Z,68.07
2018-07-24T02:39:02.761Z,67.59
2018-07-24T02:40:02.777Z,67.69
2018-07-24T02:41:23.823Z,67.59
2018-07-24T02:42:02.828Z,67.78
2018-07-24T02:43:02.850Z,67.40
2018-07-24T02:44:02.878Z,67.69
2018-07-24T02:45:02.905Z,67.69
2018-07-24T02:46:02.924Z,67.49
2018-07-24T02:47:23.968Z,67.49
2018-07-24T02:48:02.976Z,67.69
2018-07-24T02:49:03.003Z,67.49
2018-07-24T02:50:03.024Z,67.49
2018-07-24T02:51:03.048Z,67.59
2018-07-24T02:52:03.073Z,67.59
2018-07-24T02:53:24.121Z,67.49
2018-07-24T02:54:03.123Z,67.59
2018-07-24T02:55:03.147Z,67.49
2018-07-24T02:56:03.170Z,67.49
2018-07-24T02:57:03.199Z,67.78
2018-07-24T02:58:03.222Z,67.88
2018-07-24T02:59:24.265Z,67.78
2018-07-24T03:00:03.273Z,67.69
2018-07-24T03:01:03.298Z,67.40
2018-07-24T03:02:03.333Z,67.78
2018-07-24T03:03:03.345Z,67.78
2018-07-24T03:04:03.371Z,67.59
2018-07-24T03:05:24.417Z,67.88
2018-07-24T03:06:03.419Z,67.78
2018-07-24T03:07:03.450Z,67.49
2018-07-24T03:08:03.473Z,67.59
2018-07-24T03:09:03.496Z,67.59
2018-07-24T03:10:03.528Z,67.49
2018-07-24T03:11:24.561Z,67.59
2018-07-24T03:12:03.567Z,67.69
2018-07-24T03:13:03.594Z,68.07
2018-07-24T03:14:03.616Z,67.88
2018-07-24T03:15:03.644Z,67.94
2018-07-24T03:16:03.679Z,68.17
2018-07-24T03:17:24.709Z,67.75
2018-07-24T03:18:03.724Z,68.17
2018-07-24T03:19:03.740Z,68.23
2018-07-24T03:20:03.764Z,68.23
2018-07-24T03:21:03.790Z,67.65
2018-07-24T03:22:03.814Z,68.04
2018-07-24T03:23:24.858Z,67.65
2018-07-24T03:24:03.864Z,68.13
2018-07-24T03:25:03.890Z,68.23
2018-07-24T03:26:03.918Z,67.94
2018-07-24T03:27:03.942Z,68.04
2018-07-24T03:28:03.986Z,68.13
2018-07-24T03:29:25.005Z,68.23
2018-07-24T03:30:04.011Z,68.23
2018-07-24T03:31:04.033Z,68.13
2018-07-24T03:32:04.059Z,68.04
2018-07-24T03:33:04.083Z,68.04
2018-07-24T03:34:04.107Z,68.04
2018-07-24T03:35:25.150Z,68.04
2018-07-24T03:36:04.158Z,68.13
2018-07-24T03:37:04.185Z,68.13
2018-07-24T03:38:04.209Z,68.04
2018-07-24T03:39:04.230Z,67.94
2018-07-24T03:40:04.256Z,68.13
2018-07-24T03:41:25.298Z,68.23
2018-07-24T03:42:04.306Z,67.85
2018-07-24T03:43:04.328Z,67.75
2018-07-24T03:44:04.354Z,67.55
2018-07-24T03:45:04.404Z,67.75
2018-07-24T03:46:04.402Z,67.65
2018-07-24T03:47:25.445Z,67.49
2018-07-24T03:48:04.454Z,67.20
2018-07-24T03:49:04.482Z,66.82
2018-07-24T03:50:04.502Z,67.11
2018-07-24T03:51:04.527Z,66.33
2018-07-24T03:52:04.551Z,66.17
2018-07-24T03:53:25.592Z,65.69
2018-07-24T03:54:04.600Z,65.69
2018-07-24T03:55:04.624Z,65.56
2018-07-24T03:56:04.653Z,65.98
2018-07-24T03:57:04.678Z,66.05
2018-07-24T03:58:04.701Z,66.08
2018-07-24T03:59:25.741Z,66.14
2018-07-24T04:00:04.752Z,65.78
2018-07-24T04:01:04.777Z,65.40
2018-07-24T04:02:04.797Z,65.11
2018-07-24T04:03:04.821Z,64.56
2018-07-24T04:04:04.847Z,63.63
2018-07-24T04:05:25.891Z,62.95
2018-07-24T04:06:04.895Z,62.01
2018-07-24T04:07:04.922Z,61.82
2018-07-24T04:08:04.947Z,60.88
2018-07-24T04:09:04.972Z,60.33
2018-07-24T04:10:04.997Z,59.46
2018-07-24T04:11:26.038Z,58.88
2018-07-24T04:12:05.044Z,58.42
2018-07-24T04:13:05.076Z,57.97
2018-07-24T04:14:05.094Z,57.19
2018-07-24T04:15:05.119Z,56.25
2018-07-24T04:16:05.146Z,55.67
2018-07-24T04:17:26.190Z,55.69
2018-07-24T04:18:05.203Z,55.11
2018-07-24T04:19:05.223Z,54.53
2018-07-24T04:20:05.249Z,54.07
2018-07-24T04:21:05.281Z,53.39
2018-07-24T04:22:05.300Z,53.10
2018-07-24T04:23:26.343Z,53.10
2018-07-24T04:24:05.353Z,53.20
2018-07-24T04:25:05.380Z,53.30
2018-07-24T04:26:05.403Z,53.30
2018-07-24T04:27:05.432Z,53.20
2018-07-24T04:28:05.459Z,53.00
2018-07-24T04:29:26.504Z,53.10
2018-07-24T04:30:05.512Z,52.91
2018-07-24T04:31:05.574Z,53.03
2018-07-24T04:32:05.565Z,52.64
2018-07-24T04:33:05.592Z,52.55
2018-07-24T04:34:05.623Z,52.09
2018-07-24T04:35:26.663Z,51.70
2018-07-24T04:36:05.673Z,50.95
2018-07-24T04:37:05.703Z,50.75
2018-07-24T04:38:05.728Z,50.26
2018-07-24T04:39:05.758Z,49.90
2018-07-24T04:40:05.801Z,49.12
2018-07-24T04:41:26.831Z,48.56
2018-07-24T04:42:05.839Z,48.19
2018-07-24T04:43:05.866Z,48.39
2018-07-24T04:44:05.894Z,47.61
2018-07-24T04:45:05.922Z,47.25
2018-07-24T04:46:05.950Z,46.88
2018-07-24T04:47:26.999Z,46.00
2018-07-24T04:48:06.008Z,45.25
2018-07-24T04:49:06.036Z,45.26
2018-07-24T04:50:06.065Z,44.97
2018-07-24T04:51:06.095Z,44.41
2018-07-24T04:52:06.124Z,43.65
2018-07-24T04:53:27.171Z,43.07
2018-07-24T04:54:06.183Z,42.48
2018-07-24T04:55:06.208Z,42.50
2018-07-24T04:56:06.238Z,42.03
2018-07-24T04:57:06.267Z,41.74
2018-07-24T04:58:06.297Z,41.74
2018-07-24T04:59:27.345Z,41.83
2018-07-24T05:00:06.359Z,41.83
2018-07-24T05:01:06.391Z,41.82
2018-07-24T05:02:06.416Z,42.79
2018-07-24T05:03:06.448Z,42.87
2018-07-24T05:04:06.476Z,43.43
2018-07-24T05:05:27.525Z,44.21
2018-07-24T05:06:06.536Z,44.97
2018-07-24T05:07:06.564Z,44.68
2018-07-24T05:08:06.594Z,44.66
2018-07-24T05:09:06.625Z,45.15
2018-07-24T05:10:06.661Z,45.15
2018-07-24T05:11:27.711Z,45.71
2018-07-24T05:12:06.717Z,46.00
2018-07-24T05:13:06.749Z,46.00
2018-07-24T05:14:06.781Z,46.39
2018-07-24T05:15:06.811Z,46.88
2018-07-24T05:16:06.841Z,46.47
2018-07-24T05:17:27.891Z,46.86
2018-07-24T05:18:06.908Z,46.66
2018-07-24T05:19:06.937Z,47.05
2018-07-24T05:20:06.965Z,46.86
2018-07-24T05:21:06.995Z,46.95
2018-07-24T05:22:07.024Z,47.44
2018-07-24T05:23:28.083Z,47.34
2018-07-24T05:24:07.086Z,47.73
2018-07-24T05:25:07.118Z,47.32
2018-07-24T05:26:07.151Z,47.52
2018-07-24T05:27:07.184Z,47.53
2018-07-24T05:28:07.210Z,47.42
2018-07-24T05:29:28.264Z,47.52
2018-07-24T05:30:07.275Z,47.61
2018-07-24T05:31:07.304Z,47.61
2018-07-24T05:32:07.334Z,47.42
2018-07-24T05:33:07.380Z,47.80
2018-07-24T05:34:07.393Z,47.34
2018-07-24T05:35:28.444Z,46.88
2018-07-24T05:36:07.459Z,46.10
2018-07-24T05:37:07.487Z,45.54
2018-07-24T05:38:07.523Z,44.60
2018-07-24T05:39:07.550Z,43.36
2018-07-24T05:40:07.579Z,42.99
2018-07-24T05:41:28.631Z,42.42
2018-07-24T05:42:07.638Z,41.56
2018-07-24T05:43:07.672Z,41.19
2018-07-24T05:44:07.703Z,40.33
2018-07-24T05:45:07.730Z,39.84
2018-07-24T05:46:07.760Z,39.37
2018-07-24T05:47:28.810Z,38.78
2018-07-24T05:48:07.821Z,39.00
2018-07-24T05:49:07.860Z,38.41
2018-07-24T05:50:07.880Z,38.31
2018-07-24T05:51:07.910Z,38.04
2018-07-24T05:52:07.943Z,37.54
2018-07-24T05:53:28.993Z,37.74
2018-07-24T05:54:07.998Z,37.94
2018-07-24T05:55:08.056Z,37.56
2018-07-24T05:56:08.058Z,37.07
2018-07-24T05:57:08.088Z,37.07
2018-07-24T05:58:08.118Z,36.90
2018-07-24T05:59:29.168Z,36.21
2018-07-24T06:00:08.181Z,36.51
2018-07-24T06:01:08.211Z,36.80
2018-07-24T06:02:08.238Z,36.70
2018-07-24T06:03:08.269Z,36.42
2018-07-24T06:04:08.303Z,36.13
2018-07-24T06:05:29.347Z,35.46
2018-07-24T06:06:08.358Z,35.66
2018-07-24T06:07:08.392Z,34.78
2018-07-24T06:08:08.424Z,34.39
2018-07-24T06:09:08.453Z,34.39
2018-07-24T06:10:08.487Z,34.39
2018-07-24T06:11:29.538Z,34.22
2018-07-24T06:12:08.545Z,33.62
2018-07-24T06:13:08.598Z,33.62
2018-07-24T06:14:08.610Z,33.72
2018-07-24T06:15:08.637Z,33.72
2018-07-24T06:16:08.668Z,33.62
2018-07-24T06:17:29.791Z,33.23
2018-07-24T06:18:08.733Z,33.33
2018-07-24T06:19:08.764Z,33.43
2018-07-24T06:20:08.798Z,33.03
2018-07-24T06:21:08.829Z,32.95
2018-07-24T06:22:08.859Z,33.22
2018-07-24T06:23:29.927Z,34.38
2018-07-24T06:24:08.927Z,35.42
2018-07-24T06:25:08.967Z,37.23
2018-07-24T06:26:08.984Z,38.76
2018-07-24T06:27:09.018Z,39.43
2018-07-24T06:28:09.049Z,39.70
2018-07-24T06:29:30.103Z,39.62
2018-07-24T06:30:09.116Z,39.07
2018-07-24T06:31:09.147Z,37.05
2018-07-24T06:32:09.184Z,36.39
2018-07-24T06:33:09.213Z,36.76
2018-07-24T06:34:09.242Z,38.37
2018-07-24T06:35:30.293Z,39.61
2018-07-24T06:36:09.308Z,40.27
2018-07-24T06:37:09.341Z,41.80
2018-07-24T06:38:09.372Z,42.26
2018-07-24T06:39:09.399Z,42.55
2018-07-24T06:40:09.434Z,43.32
2018-07-24T06:41:30.482Z,43.71
2018-07-24T06:42:09.496Z,44.76
2018-07-24T06:43:09.528Z,44.95
2018-07-24T06:44:09.563Z,44.44
2018-07-24T06:45:09.592Z,45.12
2018-07-24T06:46:09.618Z,45.42
2018-07-24T06:47:30.667Z,45.68
2018-07-24T06:48:09.679Z,45.68
2018-07-24T06:49:09.712Z,46.17
2018-07-24T06:50:09.743Z,46.08
2018-07-24T06:51:09.812Z,46.15
2018-07-24T06:52:09.804Z,46.64
2018-07-24T06:53:30.853Z,46.83
2018-07-24T06:54:09.866Z,46.73
2018-07-24T06:55:09.895Z,47.03
2018-07-24T06:56:09.926Z,47.52
2018-07-24T06:57:09.961Z,47.22
2018-07-24T06:58:09.998Z,47.39
2018-07-24T06:59:31.030Z,47.30
2018-07-24T07:00:10.043Z,47.39
2018-07-24T07:01:10.073Z,47.49
2018-07-24T07:02:10.161Z,47.69
2018-07-24T07:03:10.135Z,48.27
2018-07-24T07:04:10.162Z,48.27
2018-07-24T07:05:31.211Z,48.05
2018-07-24T07:06:10.221Z,47.86
2018-07-24T07:07:10.249Z,48.15
2018-07-24T07:08:10.278Z,48.73
2018-07-24T07:09:10.309Z,48.73
2018-07-24T07:10:10.345Z,48.93
2018-07-24T07:11:31.385Z,48.44
2018-07-24T07:12:10.398Z,49.12
2018-07-24T07:13:10.479Z,49.02
2018-07-24T07:14:10.466Z,48.90
2018-07-24T07:15:10.498Z,49.19
2018-07-24T07:16:10.525Z,49.19
2018-07-24T07:17:31.564Z,49.10
2018-07-24T07:18:10.604Z,49.10
2018-07-24T07:19:10.599Z,49.19
2018-07-24T07:20:10.627Z,49.49
2018-07-24T07:21:10.657Z,49.39
2018-07-24T07:22:10.690Z,49.39
2018-07-24T07:23:31.785Z,50.16
2018-07-24T07:24:10.746Z,49.95
2018-07-24T07:25:10.776Z,49.85
2018-07-24T07:26:10.822Z,49.95
2018-07-24T07:27:10.835Z,49.46
2018-07-24T07:28:10.863Z,50.14
2018-07-24T07:29:31.914Z,50.24
2018-07-24T07:30:10.923Z,50.14
2018-07-24T07:31:10.949Z,50.24
2018-07-24T07:32:10.990Z,50.14
2018-07-24T07:33:11.031Z,50.43
2018-07-24T07:34:11.029Z,50.73
2018-07-24T07:35:32.077Z,50.63
2018-07-24T07:36:11.088Z,50.53
2018-07-24T07:37:11.115Z,50.43
2018-07-24T07:38:11.146Z,50.82
2018-07-24T07:39:11.180Z,50.60
2018-07-24T07:40:11.204Z,50.73
2018-07-24T07:41:32.250Z,50.60
2018-07-24T07:42:11.265Z,50.99
2018-07-24T07:43:11.293Z,51.09
2018-07-24T07:44:11.325Z,51.09
2018-07-24T07:45:11.368Z,50.99
2018-07-24T07:46:11.374Z,51.09
2018-07-24T07:47:32.416Z,50.99
2018-07-24T07:48:11.430Z,51.28
2018-07-24T07:49:11.457Z,51.18
2018-07-24T07:50:11.485Z,51.09
2018-07-24T07:51:11.514Z,50.99
2018-07-24T07:52:11.554Z,50.99
2018-07-24T07:53:32.592Z,50.99
2018-07-24T07:54:11.603Z,51.38
2018-07-24T07:55:11.641Z,51.09
2018-07-24T07:56:11.655Z,51.48
2018-07-24T07:57:11.687Z,51.18
2018-07-24T07:58:11.710Z,51.28
2018-07-24T07:59:32.760Z,51.48
2018-07-24T08:00:11.770Z,51.28
2018-07-24T08:01:11.838Z,51.28
2018-07-24T08:02:11.828Z,51.75
2018-07-24T08:03:11.853Z,51.57
2018-07-24T08:04:11.899Z,51.93
2018-07-24T08:05:32.933Z,51.93
2018-07-24T08:06:11.955Z,51.65
2018-07-24T08:07:11.963Z,51.55
2018-07-24T08:08:11.989Z,51.67
2018-07-24T08:09:12.024Z,51.75
2018-07-24T08:10:12.048Z,51.75
2018-07-24T08:11:33.091Z,52.03
2018-07-24T08:12:12.154Z,52.03
2018-07-24T08:13:12.140Z,52.03
2018-07-24T08:14:12.217Z,52.03
2018-07-24T08:15:12.190Z,52.03
2018-07-24T08:16:12.218Z,51.84
2018-07-24T08:17:33.260Z,52.03
2018-07-24T08:18:12.294Z,52.13
2018-07-24T08:19:12.295Z,51.55
2018-07-24T08:20:12.325Z,51.65
2018-07-24T08:21:12.358Z,51.93
2018-07-24T08:22:12.437Z,51.84
2018-07-24T08:23:33.429Z,51.93
2018-07-24T08:24:12.435Z,51.75
2018-07-24T08:25:12.464Z,51.81
2018-07-24T08:26:12.489Z,52.11
2018-07-24T08:27:12.517Z,52.13
2018-07-24T08:28:12.634Z,52.01
2018-07-24T08:29:33.594Z,51.75
2018-07-24T08:30:12.640Z,52.01
2018-07-24T08:31:12.631Z,51.75
2018-07-24T08:32:12.658Z,51.84
2018-07-24T08:33:12.683Z,51.72
2018-07-24T08:34:12.710Z,51.81
2018-07-24T08:35:33.757Z,51.72
2018-07-24T08:36:12.765Z,51.81
2018-07-24T08:37:12.802Z,51.81
2018-07-24T08:38:12.818Z,51.81
2018-07-24T08:39:12.860Z,51.53
2018-07-24T08:40:12.880Z,51.81
2018-07-24T08:41:33.922Z,52.11
2018-07-24T08:42:12.930Z,52.11
2018-07-24T08:43:12.955Z,52.01
2018-07-24T08:44:12.984Z,52.50
2018-07-24T08:45:13.013Z,52.50
2018-07-24T08:46:13.039Z,52.40
2018-07-24T08:47:34.088Z,52.30
2018-07-24T08:48:13.094Z,52.28
2018-07-24T08:49:13.183Z,52.40
2018-07-24T08:50:13.169Z,52.47
2018-07-24T08:51:13.180Z,52.11
2018-07-24T08:52:13.210Z,52.11
2018-07-24T08:53:34.392Z,52.11
2018-07-24T08:54:13.409Z,52.08
2018-07-24T08:55:13.595Z,52.28
2018-07-24T08:56:13.313Z,52.08
2018-07-24T08:57:13.344Z,52.50
2018-07-24T08:58:13.378Z,52.18
2018-07-24T08:59:34.414Z,52.28
2018-07-24T09:00:13.427Z,52.37
2018-07-24T09:01:13.456Z,52.47
2018-07-24T09:02:13.483Z,52.28
2018-07-24T09:03:13.517Z,52.47
2018-07-24T09:04:13.556Z,52.47
2018-07-24T09:05:34.580Z,52.37
2018-07-24T09:06:13.590Z,52.28
2018-07-24T09:07:13.617Z,52.66
2018-07-24T09:08:13.640Z,52.56
2018-07-24T09:09:13.671Z,52.56
2018-07-24T09:10:13.706Z,52.56
2018-07-24T09:11:34.746Z,52.66
2018-07-24T09:12:13.751Z,52.76
2018-07-24T09:13:13.779Z,52.76
2018-07-24T09:14:13.806Z,52.86
2018-07-24T09:15:13.830Z,52.76
2018-07-24T09:16:13.858Z,52.56
2018-07-24T09:17:34.903Z,52.76
2018-07-24T09:18:13.916Z,52.56
2018-07-24T09:19:13.938Z,52.56
2018-07-24T09:20:13.967Z,52.47
2018-07-24T09:21:13.996Z,52.54
2018-07-24T09:22:14.025Z,52.47
2018-07-24T09:23:35.073Z,52.47
2018-07-24T09:24:14.084Z,52.44
2018-07-24T09:25:14.103Z,52.54
2018-07-24T09:26:14.130Z,52.66
2018-07-24T09:27:14.158Z,52.73
2018-07-24T09:28:14.186Z,52.37
2018-07-24T09:29:35.231Z,52.54
2018-07-24T09:30:14.238Z,52.66
2018-07-24T09:31:14.269Z,52.86
2018-07-24T09:32:14.432Z,52.73
2018-07-24T09:33:14.324Z,52.86
2018-07-24T09:34:14.346Z,52.93
2018-07-24T09:35:35.394Z,52.86
2018-07-24T09:36:14.402Z,52.95
2018-07-24T09:37:14.432Z,52.76
2018-07-24T09:38:14.456Z,52.83
2018-07-24T09:39:14.486Z,52.93
2018-07-24T09:40:14.515Z,52.83
2018-07-24T09:41:35.557Z,52.83
2018-07-24T09:42:14.566Z,52.93
2018-07-24T09:43:14.591Z,53.02
2018-07-24T09:44:14.624Z,52.83
2018-07-24T09:45:14.659Z,53.02
2018-07-24T09:46:14.688Z,53.02
2018-07-24T09:47:35.743Z,53.12
2018-07-24T09:48:14.726Z,53.12
2018-07-24T09:49:14.754Z,53.22
2018-07-24T09:50:14.784Z,53.02
2018-07-24T09:51:14.822Z,53.02
2018-07-24T09:52:14.835Z,53.12
2018-07-24T09:53:35.881Z,53.02
2018-07-24T09:54:14.891Z,52.93
2018-07-24T09:55:14.915Z,53.02
2018-07-24T09:56:14.947Z,53.22
2018-07-24T09:57:14.968Z,53.31
2018-07-24T09:58:14.997Z,53.02
2018-07-24T09:59:36.073Z,53.61
2018-07-24T10:00:15.048Z,53.31
2018-07-24T10:01:15.078Z,52.93
2018-07-24T10:02:15.112Z,52.83
2018-07-24T10:03:15.132Z,53.12
2018-07-24T10:04:15.162Z,52.93
2018-07-24T10:05:36.210Z,53.12
2018-07-24T10:06:15.207Z,52.83
2018-07-24T10:07:15.259Z,53.02
2018-07-24T10:08:15.264Z,52.93
2018-07-24T10:09:15.294Z,53.02
2018-07-24T10:10:15.317Z,52.93
2018-07-24T10:11:36.364Z,53.02
2018-07-24T10:12:15.415Z,52.93
2018-07-24T10:13:15.445Z,52.93
2018-07-24T10:14:15.425Z,52.93
2018-07-24T10:15:15.453Z,52.93
2018-07-24T10:16:15.476Z,52.93
2018-07-24T10:17:36.525Z,53.02
2018-07-24T10:18:15.777Z,52.93
2018-07-24T10:19:15.584Z,52.93
2018-07-24T10:20:15.585Z,52.83
2018-07-24T10:21:15.616Z,52.93
2018-07-24T10:22:15.764Z,52.93
2018-07-24T10:23:36.686Z,52.83
2018-07-24T10:24:15.700Z,53.02
2018-07-24T10:25:15.719Z,53.12
2018-07-24T10:26:15.745Z,53.02
2018-07-24T10:27:15.774Z,52.83
2018-07-24T10:28:15.797Z,53.02
2018-07-24T10:29:36.843Z,53.02
2018-07-24T10:30:15.915Z,52.83
2018-07-24T10:31:15.889Z,52.93
2018-07-24T10:32:15.906Z,53.02
2018-07-24T10:33:15.937Z,52.93
2018-07-24T10:34:15.961Z,52.83
2018-07-24T10:35:37.002Z,53.02
2018-07-24T10:36:16.012Z,52.93
2018-07-24T10:37:16.038Z,53.61
2018-07-24T10:38:16.064Z,53.22
2018-07-24T10:39:16.092Z,52.73
2018-07-24T10:40:16.122Z,53.02
2018-07-24T10:41:37.168Z,53.02
2018-07-24T10:42:16.176Z,52.93
2018-07-24T10:43:16.202Z,52.93
2018-07-24T10:44:16.227Z,52.73
2018-07-24T10:45:16.254Z,53.00
2018-07-24T10:46:16.283Z,52.83
2018-07-24T10:47:37.322Z,52.93
2018-07-24T10:48:16.332Z,52.93
2018-07-24T10:49:16.385Z,52.93
2018-07-24T10:50:16.397Z,52.80
2018-07-24T10:51:16.430Z,52.90
2018-07-24T10:52:16.443Z,52.93
2018-07-24T10:53:37.485Z,52.90
2018-07-24T10:54:16.495Z,52.83
2018-07-24T10:55:16.530Z,52.83
2018-07-24T10:56:16.549Z,52.71
2018-07-24T10:57:16.577Z,52.90
2018-07-24T10:58:16.606Z,52.90
2018-07-24T10:59:37.643Z,52.61
2018-07-24T11:00:16.652Z,53.19
2018-07-24T11:01:16.682Z,52.71
2018-07-24T11:02:16.711Z,52.71
2018-07-24T11:03:16.734Z,52.80
2018-07-24T11:04:16.761Z,53.00
2018-07-24T11:05:37.807Z,52.73
2018-07-24T11:06:16.817Z,52.90
2018-07-24T11:07:16.843Z,53.00
2018-07-24T11:08:16.866Z,52.90
2018-07-24T11:09:16.893Z,52.71
2018-07-24T11:10:16.917Z,52.71
2018-07-24T11:11:37.962Z,52.61
2018-07-24T11:12:16.979Z,52.80
2018-07-24T11:13:17.003Z,52.61
2018-07-24T11:14:17.034Z,52.61
2018-07-24T11:15:17.056Z,52.71
2018-07-24T11:16:17.085Z,52.71
2018-07-24T11:17:38.919Z,52.51
2018-07-24T11:18:17.146Z,52.42
2018-07-24T11:19:17.160Z,52.42
2018-07-24T11:20:17.190Z,52.51
2018-07-24T11:21:17.229Z,52.34
2018-07-24T11:22:17.309Z,52.51
2018-07-24T11:23:38.330Z,52.51
2018-07-24T11:24:17.299Z,52.71
2018-07-24T11:25:17.321Z,52.61
2018-07-24T11:26:17.346Z,52.61
2018-07-24T11:27:17.442Z,52.80
2018-07-24T11:28:17.419Z,52.71
2018-07-24T11:29:38.444Z,52.61
2018-07-24T11:30:17.582Z,52.51
2018-07-24T11:31:17.476Z,52.42
2018-07-24T11:32:17.509Z,52.90
2018-07-24T11:33:17.550Z,52.80
2018-07-24T11:34:17.565Z,52.61
2018-07-24T11:35:38.729Z,52.71
2018-07-24T11:36:17.659Z,52.80
2018-07-24T11:37:17.642Z,52.80
2018-07-24T11:38:17.669Z,52.71
2018-07-24T11:39:17.692Z,52.61
2018-07-24T11:40:17.918Z,52.61
2018-07-24T11:41:38.770Z,52.80
2018-07-24T11:42:17.811Z,52.71
2018-07-24T11:43:17.804Z,52.71
2018-07-24T11:44:17.987Z,52.61
2018-07-24T11:45:17.876Z,52.71
2018-07-24T11:46:17.910Z,52.71
2018-07-24T11:47:39.008Z,52.71
2018-07-24T11:48:17.939Z,52.61
2018-07-24T11:49:17.966Z,52.51
2018-07-24T11:50:17.986Z,52.32
2018-07-24T11:51:18.021Z,52.42
2018-07-24T11:52:18.037Z,52.22
2018-07-24T11:53:39.480Z,52.22
2018-07-24T11:54:18.089Z,52.32
2018-07-24T11:55:18.117Z,52.32
2018-07-24T11:56:18.163Z,52.42
2018-07-24T11:57:18.171Z,52.71
2018-07-24T11:58:18.198Z,52.71
2018-07-24T11:59:39.244Z,52.71
2018-07-24T12:00:18.518Z,52.61
2018-07-24T12:01:18.277Z,52.71
2018-07-24T12:02:18.306Z,52.71
2018-07-24T12:03:18.338Z,52.51
2018-07-24T12:04:18.366Z,52.32
2018-07-24T12:05:39.402Z,52.22
2018-07-24T12:06:18.412Z,52.42
2018-07-24T12:07:18.434Z,52.22
2018-07-24T12:08:18.460Z,52.42
2018-07-24T12:09:18.500Z,52.42
2018-07-24T12:10:18.521Z,52.42
2018-07-24T12:11:39.566Z,52.32
2018-07-24T12:12:18.569Z,52.22
2018-07-24T12:13:18.598Z,52.42
2018-07-24T12:14:18.623Z,52.12
2018-07-24T12:15:18.656Z,52.22
2018-07-24T12:16:18.675Z,52.42
2018-07-24T12:17:39.720Z,52.42
2018-07-24T12:18:18.726Z,52.61
2018-07-24T12:19:18.754Z,52.42
2018-07-24T12:20:18.789Z,52.42
2018-07-24T12:21:19.410Z,52.32
2018-07-24T12:22:18.835Z,52.51
2018-07-24T12:23:39.883Z,52.22
2018-07-24T12:24:18.891Z,52.61
2018-07-24T12:25:18.918Z,52.32
2018-07-24T12:26:18.940Z,52.32
2018-07-24T12:27:18.967Z,52.32
2018-07-24T12:28:18.991Z,52.32
2018-07-24T12:29:40.041Z,52.32
2018-07-24T12:30:19.048Z,52.32
2018-07-24T12:31:19.073Z,52.61
2018-07-24T12:32:19.098Z,52.12
2018-07-24T12:33:19.131Z,52.51
2018-07-24T12:34:19.159Z,52.42
2018-07-24T12:35:40.207Z,52.32
2018-07-24T12:36:19.218Z,52.22
2018-07-24T12:37:19.235Z,52.32
2018-07-24T12:38:19.261Z,52.32
2018-07-24T12:39:19.284Z,52.22
2018-07-24T12:40:19.313Z,52.32
2018-07-24T12:41:40.359Z,52.22
2018-07-24T12:42:19.370Z,52.42
2018-07-24T12:43:19.396Z,52.32
2018-07-24T12:44:19.418Z,52.42
2018-07-24T12:45:19.467Z,52.51
2018-07-24T12:46:19.474Z,52.32
2018-07-24T12:47:40.519Z,51.74
2018-07-24T12:48:19.525Z,52.03
2018-07-24T12:49:19.555Z,52.32
2018-07-24T12:50:19.578Z,51.93
2018-07-24T12:51:19.619Z,51.84
2018-07-24T12:52:19.672Z,51.84
2018-07-24T12:53:40.678Z,51.64